Time;durP1;ratioP1;P1;durP2;ratioP2;P2;SDS_P1;SDS_P2;PMS_P1;PMS_P2;Temp;Humidity;BMP_temperature;BMP_pressure;BME280_temperature;BME280_humidity;BME280_pressure;Samples;Min_cycle;Max_cycle;Signal;HPM_P1;HPM_P2
2023/09/29 00:01:34;;;;;;;13.27;7.35;;;;;;;14.01;64.16;100757.41;4797413;29;20054;-69
2023/09/29 00:04:01;;;;;;;15.20;7.78;;;;;;;14.03;64.00;100762.59;4794364;29;20095;-69
2023/09/29 00:06:27;;;;;;;13.13;6.68;;;;;;;14.03;63.98;100767.84;4797317;29;20042;-71
2023/09/29 00:08:53;;;;;;;12.00;6.78;;;;;;;13.90;63.80;100747.88;4794297;29;20039;-71
2023/09/29 00:11:19;;;;;;;14.27;7.15;;;;;;;14.03;64.23;100765.22;4798071;29;20051;-71
2023/09/29 00:13:49;;;;;;;19.35;7.40;;;;;;;13.94;63.81;100752.22;4795014;29;20078;-69
2023/09/29 00:16:15;;;;;;;13.38;6.57;;;;;;;13.68;64.18;100720.13;4812621;29;20503;-71
2023/09/29 00:18:42;;;;;;;15.80;7.05;;;;;;;13.97;64.07;100762.66;4794478;29;20050;-71
2023/09/29 00:21:08;;;;;;;16.77;7.38;;;;;;;13.81;63.87;100738.38;4811199;29;20064;-71
2023/09/29 00:23:35;;;;;;;21.25;7.72;;;;;;;13.78;64.10;100738.38;4784619;29;20047;-71
2023/09/29 00:26:01;;;;;;;11.82;6.68;;;;;;;13.82;64.08;100751.41;4766408;29;20537;-72
2023/09/29 00:28:27;;;;;;;16.42;7.10;;;;;;;13.74;64.06;100739.28;4812150;29;20046;-71
2023/09/29 00:30:54;;;;;;;11.68;6.80;;;;;;;13.85;64.04;100767.09;4799811;29;20103;-80
2023/09/29 00:33:21;;;;;;;12.43;7.22;;;;;;;13.83;64.31;100768.84;4786641;29;20057;-78
2023/09/29 00:35:47;;;;;;;16.42;7.22;;;;;;;13.79;64.22;100761.91;4785877;29;20063;-73
2023/09/29 00:38:14;;;;;;;13.07;6.82;;;;;;;13.68;64.21;100753.28;4782437;29;20073;-72
2023/09/29 00:40:40;;;;;;;16.42;7.00;;;;;;;13.67;64.05;100762.88;4780980;29;20047;-72
2023/09/29 00:43:08;;;;;;;11.95;7.07;;;;;;;13.48;64.23;100730.72;4808953;29;20135;-74
2023/09/29 00:45:37;;;;;;;13.52;6.38;;;;;;;13.69;64.29;100771.56;4780901;29;20137;-72
2023/09/29 00:48:10;;;;;;;18.80;7.13;;;;;;;13.73;64.34;100775.03;4780389;29;20572;-73
2023/09/29 00:50:39;;;;;;;14.45;7.60;;;;;;;13.42;64.31;100738.59;4794309;29;20211;-73
2023/09/29 00:53:13;;;;;;;15.68;7.05;;;;;;;13.63;64.40;100775.97;4809384;29;20050;-71
2023/09/29 00:55:41;;;;;;;12.98;6.53;;;;;;;13.64;64.54;100780.31;4794992;29;20059;-72
2023/09/29 00:58:09;;;;;;;14.25;6.43;;;;;;;13.61;64.47;100781.22;4795390;29;20533;-71
2023/09/29 01:00:40;;;;;;;13.63;6.78;;;;;;;13.60;64.53;100781.19;4766920;29;20463;-71
2023/09/29 01:03:12;;;;;;;;;;;;;;;13.58;64.66;100777.72;4795291;29;20043;-73
2023/09/29 01:05:45;;;;;;;13.07;6.72;;;;;;;13.52;64.23;100769.06;4796565;29;20011;-72
2023/09/29 01:08:18;;;;;;;20.42;7.07;;;;;;;13.25;64.48;100734.31;4795491;29;20096;-71
2023/09/29 01:10:47;;;;;;;17.38;7.00;;;;;;;13.36;64.55;100762.13;4779698;29;20488;-69
2023/09/29 01:13:13;;;;;;;14.38;6.72;;;;;;;13.38;64.67;100773.44;4791796;29;20628;-70
2023/09/29 01:15:39;;;;;;;16.10;7.00;;;;;;;13.29;64.61;100755.22;4797465;29;20115;-71
2023/09/29 01:18:06;;;;;;;15.82;6.40;;;;;;;13.33;64.79;100770.88;4797905;29;20046;-70
2023/09/29 01:20:37;;;;;;;14.57;7.40;;;;;;;12.72;64.67;100675.31;4785420;29;20085;-70
2023/09/29 01:23:04;;;;;;;14.93;6.50;;;;;;;13.25;64.47;100773.50;4811760;29;20046;-72
2023/09/29 01:25:30;;;;;;;14.90;6.80;;;;;;;13.11;64.85;100757.03;4796217;29;20047;-70
2023/09/29 01:27:58;;;;;;;9.52;6.10;;;;;;;13.26;64.99;100776.97;4810543;29;20043;-72
2023/09/29 01:30:27;;;;;;;10.75;6.70;;;;;;;13.20;64.94;100783.09;4800000;29;20090;-71
2023/09/29 01:32:59;;;;;;;12.30;6.57;;;;;;;13.16;64.83;100781.38;4785588;29;20038;-71
2023/09/29 01:35:27;;;;;;;19.27;6.78;;;;;;;13.15;65.17;100781.41;4781521;29;20153;-71
2023/09/29 01:38:00;;;;;;;12.90;6.78;;;;;;;13.07;65.05;100770.97;4797481;29;20043;-70
2023/09/29 01:40:28;;;;;;;15.13;6.40;;;;;;;13.03;65.13;100772.72;4784324;29;20043;-70
2023/09/29 01:42:56;;;;;;;12.95;6.50;;;;;;;13.09;65.37;100791.00;4797149;29;20530;-72
2023/09/29 01:45:22;;;;;;;16.85;7.25;;;;;;;13.10;65.60;100782.28;4796558;29;20055;-70
2023/09/29 01:47:49;;;;;;;14.25;7.38;;;;;;;12.99;65.57;100765.78;4797726;29;20043;-71
2023/09/29 01:50:22;;;;;;;16.95;6.82;;;;;;;13.00;65.65;100762.31;4798018;29;20509;-71
2023/09/29 01:52:50;;;;;;;19.05;7.13;;;;;;;13.08;65.52;100783.19;4799300;29;21082;-71
2023/09/29 01:55:20;;;;;;;16.30;7.05;;;;;;;13.05;65.68;100784.03;4799357;29;20673;-70
2023/09/29 01:57:48;;;;;;;16.07;7.03;;;;;;;13.02;65.67;100781.44;4780789;29;20046;-70
2023/09/29 02:00:25;;;;;;;14.90;7.20;;;;;;;12.82;65.41;100758.00;4769979;29;20291;-70
2023/09/29 02:02:54;;;;;;;21.88;7.55;;;;;;;12.77;65.51;100755.41;4801242;29;20047;-70
2023/09/29 02:05:20;;;;;;;26.20;7.50;;;;;;;12.78;65.54;100759.75;4786668;29;20050;-70
2023/09/29 02:07:49;;;;;;;18.27;7.60;;;;;;;12.73;65.55;100758.00;4795952;29;20141;-69
2023/09/29 02:10:20;;;;;;;18.85;7.72;;;;;;;12.92;65.59;100788.41;4793960;29;20047;-70
2023/09/29 02:12:58;;;;;;;15.85;7.18;;;;;;;12.90;65.63;100779.75;4765954;29;20055;-70
2023/09/29 02:15:42;;;;;;;19.63;7.53;;;;;;;12.89;66.00;100784.97;4768921;29;20430;-70
2023/09/29 02:18:09;;;;;;;17.98;7.85;;;;;;;12.65;65.97;100758.03;4795942;29;20047;-71
2023/09/29 02:20:39;;;;;;;13.73;7.40;;;;;;;12.74;65.91;100773.69;4795371;29;20137;-72
2023/09/29 02:23:07;;;;;;;15.52;7.43;;;;;;;12.74;65.92;100783.25;4797266;29;20142;-70
2023/09/29 02:25:33;;;;;;;18.38;7.70;;;;;;;12.71;65.93;100767.59;4797835;29;20507;-71
2023/09/29 02:28:00;;;;;;;23.52;8.52;;;;;;;12.84;65.94;100786.72;4785730;29;20535;-72
2023/09/29 02:30:27;;;;;;;20.90;8.35;;;;;;;12.83;66.17;100788.47;4796776;29;20046;-70
2023/09/29 02:32:56;;;;;;;19.45;7.85;;;;;;;12.83;66.15;100788.47;4784400;29;20042;-71
2023/09/29 02:35:22;;;;;;;13.45;7.85;;;;;;;12.84;66.31;100784.09;4783128;29;20059;-71
2023/09/29 02:37:48;;;;;;;16.23;8.18;;;;;;;12.80;66.40;100784.09;4799489;29;20043;-70
2023/09/29 02:40:15;;;;;;;16.15;7.53;;;;;;;12.81;66.60;100782.38;4796400;29;20129;-71
2023/09/29 02:42:44;;;;;;;12.48;6.80;;;;;;;12.78;66.46;100769.31;4797213;29;20120;-69
2023/09/29 02:45:11;;;;;;;16.58;7.28;;;;;;;12.83;66.46;100780.63;4796401;29;20038;-74
2023/09/29 02:47:41;;;;;;;15.93;8.18;;;;;;;12.91;66.58;100788.44;4795483;29;20431;-71
2023/09/29 02:50:12;;;;;;;15.60;7.23;;;;;;;12.87;66.73;100784.97;4798703;29;20100;-71
2023/09/29 02:52:39;;;;;;;15.65;7.32;;;;;;;12.84;66.65;100776.25;4795981;29;20109;-71
2023/09/29 02:55:11;;;;;;;14.18;7.68;;;;;;;12.65;66.62;100755.41;4781904;29;20112;-71
2023/09/29 02:57:37;;;;;;;14.40;7.65;;;;;;;12.55;66.74;100746.75;4795041;29;20053;-70
2023/09/29 03:00:07;;;;;;;14.50;7.47;;;;;;;12.83;66.87;100792.81;4795774;29;20047;-70
2023/09/29 03:02:33;;;;;;;13.82;7.97;;;;;;;12.78;67.06;100788.50;4779774;29;20050;-70
2023/09/29 03:05:00;;;;;;;18.35;7.10;;;;;;;12.74;66.71;100783.25;4798598;29;20049;-70
2023/09/29 03:07:27;;;;;;;14.80;7.70;;;;;;;12.67;67.17;100784.16;4796449;29;20494;-71
2023/09/29 03:09:56;;;;;;;10.45;7.00;;;;;;;12.63;67.06;100771.09;4794889;29;20135;-70
2023/09/29 03:12:22;;;;;;;12.90;7.50;;;;;;;12.57;67.21;100771.09;4783732;29;20051;-70
2023/09/29 03:14:48;;;;;;;15.55;7.43;;;;;;;12.59;67.21;100769.38;4797051;29;20050;-70
2023/09/29 03:17:17;;;;;;;13.00;8.05;;;;;;;12.72;67.41;100790.22;4796267;29;20133;-70
2023/09/29 03:19:44;;;;;;;12.88;7.47;;;;;;;12.51;67.36;100752.84;4799451;29;20370;-72
2023/09/29 03:22:13;;;;;;;15.05;7.85;;;;;;;12.71;67.68;100789.38;4794321;29;20047;-72
2023/09/29 03:24:40;;;;;;;12.85;7.00;;;;;;;12.69;67.61;100775.44;4781303;29;20051;-71
2023/09/29 03:27:06;;;;;;;12.20;7.50;;;;;;;12.53;67.67;100755.47;4783045;29;20138;-71
2023/09/29 03:29:35;;;;;;;14.20;7.50;;;;;;;12.47;67.90;100743.25;4796503;29;20062;-70
2023/09/29 03:32:01;;;;;;;12.43;7.55;;;;;;;12.57;67.92;100759.81;4780867;29;20068;-71
2023/09/29 03:34:28;;;;;;;13.70;7.85;;;;;;;12.72;67.88;100785.00;4797114;29;20057;-70
2023/09/29 03:36:54;;;;;;;20.17;7.55;;;;;;;12.68;67.84;100778.91;4794611;29;20046;-69
2023/09/29 03:39:20;;;;;;;11.60;7.78;;;;;;;12.60;68.15;100763.28;4778657;29;20074;-70
2023/09/29 03:41:46;;;;;;;17.60;8.23;;;;;;;12.63;67.72;100765.88;4778509;29;20524;-71
2023/09/29 03:44:12;;;;;;;15.23;8.13;;;;;;;12.59;68.02;100751.09;4808654;29;20055;-71
2023/09/29 03:46:39;;;;;;;13.45;7.30;;;;;;;12.90;67.92;100791.94;4794127;29;20050;-71
2023/09/29 03:49:05;;;;;;;15.35;7.63;;;;;;;12.98;67.98;100797.13;4792659;29;20130;-71
2023/09/29 03:51:31;;;;;;;17.55;7.93;;;;;;;13.06;68.13;100790.16;4809414;29;20571;-70
2023/09/29 03:53:57;;;;;;;19.13;8.13;;;;;;;12.93;67.95;100766.66;4791569;29;20051;-72
2023/09/29 03:56:24;;;;;;;13.52;7.32;;;;;;;13.09;67.95;100769.22;4793407;29;20612;-69
2023/09/29 03:58:56;;;;;;;20.40;7.93;;;;;;;13.33;67.84;100786.53;4777027;29;20050;-71
2023/09/29 04:01:23;;;;;;;13.52;8.05;;;;;;;13.47;67.63;100781.28;4807633;29;20080;-69
2023/09/29 04:03:49;;;;;;;12.27;7.40;;;;;;;13.36;67.35;100741.22;4793445;29;20322;-68
2023/09/29 04:06:16;;;;;;;13.93;7.50;;;;;;;13.62;67.40;100769.88;4794187;29;20046;-70
2023/09/29 04:08:42;;;;;;;13.32;7.57;;;;;;;13.61;67.08;100744.59;4792107;29;20128;-71
2023/09/29 04:11:08;;;;;;;13.55;7.18;;;;;;;13.96;67.01;100774.00;4792532;29;20174;-69
2023/09/29 04:13:35;;;;;;;16.48;7.07;;;;;;;14.15;67.06;100775.59;4808635;29;20399;-69
2023/09/29 04:16:05;;;;;;;16.20;9.38;;;;;;;14.30;66.72;100763.25;4779224;29;21298;-70
2023/09/29 04:18:32;;;;;;;12.88;8.68;;;;;;;14.63;66.62;100771.69;4792391;29;20051;-71
2023/09/29 04:21:01;;;;;;;12.93;8.38;;;;;;;14.80;65.78;100763.66;4793201;29;20040;-72
2023/09/29 04:23:28;;;;;;;13.13;7.82;;;;;;;15.19;65.68;100769.34;4779172;29;20042;-72
2023/09/29 04:25:55;;;;;;;12.45;7.40;;;;;;;15.30;65.14;100745.59;4796468;29;20066;-71
2023/09/29 04:28:21;;;;;;;12.65;7.40;;;;;;;15.69;64.60;100765.16;4778131;29;20047;-72
2023/09/29 04:30:48;;;;;;;14.63;7.13;;;;;;;15.97;64.63;100757.75;4779454;29;20510;-71
2023/09/29 04:33:14;;;;;;;14.98;7.55;;;;;;;16.16;63.70;100695.31;4777823;29;20420;-70
2023/09/29 04:35:43;;;;;;;11.23;6.60;;;;;;;17.37;63.13;100740.25;4782057;29;20057;-70
2023/09/29 04:38:09;;;;;;;10.80;6.90;;;;;;;18.35;62.02;100735.31;4794940;29;20236;-69
2023/09/29 04:40:35;;;;;;;9.13;6.25;;;;;;;19.33;60.08;100751.06;4796763;29;20034;-70
2023/09/29 04:43:02;;;;;;;17.83;7.03;;;;;;;20.06;58.09;100712.69;4780535;29;20463;-70
2023/09/29 04:45:28;;;;;;;13.48;6.88;;;;;;;20.84;56.25;100721.41;4794840;29;20083;-71
2023/09/29 04:47:54;;;;;;;19.15;6.43;;;;;;;21.47;54.24;100696.09;4794735;29;20043;-71
2023/09/29 04:50:23;;;;;;;14.27;6.70;;;;;;;22.42;52.55;100733.69;4781451;29;20490;-69
2023/09/29 04:52:49;;;;;;;10.13;5.88;;;;;;;22.63;50.75;100646.16;4798551;29;20883;-69
2023/09/29 04:55:15;;;;;;;9.98;6.70;;;;;;;23.80;48.78;100715.00;4797573;29;20407;-69
2023/09/29 04:57:42;;;;;;;10.98;7.03;;;;;;;24.00;47.07;100659.06;4796580;29;20490;-71
2023/09/29 05:00:08;;;;;;;9.13;6.35;;;;;;;24.99;45.53;100729.28;4780239;29;20046;-69
2023/09/29 05:02:35;;;;;;;10.77;6.78;;;;;;;25.27;44.00;100700.16;4798029;29;20421;-70
2023/09/29 05:05:04;;;;;;;10.90;6.75;;;;;;;25.90;43.22;100726.84;4796380;29;20118;-70
2023/09/29 05:07:31;;;;;;;12.25;7.05;;;;;;;26.39;41.70;100728.41;4770571;29;20712;-70
2023/09/29 05:09:57;;;;;;;15.43;7.47;;;;;;;26.93;40.35;100724.25;4798879;29;20102;-70
2023/09/29 05:12:25;;;;;;;14.85;7.15;;;;;;;27.46;38.62;100716.44;4785319;29;20058;-73
2023/09/29 05:14:51;;;;;;;14.45;6.78;;;;;;;27.92;37.96;100700.97;4794839;29;20047;-71
2023/09/29 05:17:17;;;;;;;12.95;7.32;;;;;;;28.24;36.99;100712.16;4796993;29;20058;-69
2023/09/29 05:19:43;;;;;;;10.43;6.55;;;;;;;28.26;36.26;100688.84;4793523;29;20039;-71
2023/09/29 05:22:10;;;;;;;13.45;6.63;;;;;;;28.53;36.15;100689.66;4796954;29;21638;-69
2023/09/29 05:24:36;;;;;;;11.35;6.15;;;;;;;29.16;35.29;100698.56;4795862;29;20475;-70
2023/09/29 05:27:02;;;;;;;11.40;6.35;;;;;;;29.81;34.33;100700.94;4796464;29;20112;-69
2023/09/29 05:29:28;;;;;;;16.65;6.95;;;;;;;30.26;33.52;100708.28;4793896;29;20054;-70
2023/09/29 05:31:54;;;;;;;12.70;7.05;;;;;;;30.63;32.39;100677.72;4780057;29;20047;-70
2023/09/29 05:34:20;;;;;;;13.93;7.03;;;;;;;31.32;32.11;100699.97;4795276;29;20051;-72
2023/09/29 05:36:46;;;;;;;13.10;6.80;;;;;;;31.72;30.96;100683.22;4781869;29;20046;-69
2023/09/29 05:39:14;;;;;;;14.57;6.43;;;;;;;32.25;29.74;100703.78;4797464;29;20054;-71
2023/09/29 05:41:40;;;;;;;11.63;6.88;;;;;;;32.95;28.87;100708.56;4797682;29;20109;-70
2023/09/29 05:44:06;;;;;;;16.15;7.40;;;;;;;33.50;28.44;100715.31;4798611;29;20388;-71
2023/09/29 05:46:32;;;;;;;13.95;6.97;;;;;;;34.03;27.62;100688.91;4809267;29;20047;-69
2023/09/29 05:48:58;;;;;;;14.13;7.50;;;;;;;34.73;26.28;100703.88;4778604;29;20112;-70
2023/09/29 05:51:24;;;;;;;9.55;6.90;;;;;;;35.08;25.86;100703.13;4810601;29;20485;-70
2023/09/29 05:53:50;;;;;;;15.43;7.18;;;;;;;35.19;25.09;100698.53;4797318;29;20043;-70
2023/09/29 05:56:16;;;;;;;13.30;6.97;;;;;;;35.48;24.85;100694.75;4781136;29;20047;-70
2023/09/29 05:58:42;;;;;;;13.45;7.45;;;;;;;35.59;23.89;100697.25;4793348;29;20066;-70
2023/09/29 06:01:13;;;;;;;13.85;7.95;;;;;;;35.93;23.91;100676.69;4797426;29;20043;-70
2023/09/29 06:03:40;;;;;;;;;;;;;;;36.49;23.33;100709.75;4796247;29;20570;-72
2023/09/29 06:06:09;;;;;;;12.75;7.75;;;;;;;37.03;22.69;100701.31;4782580;29;19932;-72
2023/09/29 06:08:36;;;;;;;15.55;7.40;;;;;;;37.68;22.17;100699.72;4794095;29;20074;-71
2023/09/29 06:11:04;;;;;;;13.38;7.47;;;;;;;38.07;21.76;100691.91;4796122;29;20053;-69
2023/09/29 06:13:30;;;;;;;15.45;7.93;;;;;;;38.62;21.05;100689.38;4798108;29;20053;-70
2023/09/29 06:15:57;;;;;;;14.57;8.77;;;;;;;38.95;20.50;100694.66;4796102;29;20039;-74
2023/09/29 06:18:24;;;;;;;18.25;8.85;;;;;;;39.39;20.39;100677.72;4795697;29;20145;-72
2023/09/29 06:20:50;;;;;;;16.27;8.43;;;;;;;39.98;19.56;100689.78;4797958;29;20051;-71
2023/09/29 06:23:16;;;;;;;19.05;9.23;;;;;;;39.89;19.57;100672.69;4791343;29;20464;-70
2023/09/29 06:25:42;;;;;;;17.92;8.52;;;;;;;39.96;19.39;100701.91;4793931;29;20073;-72
2023/09/29 06:28:08;;;;;;;15.20;8.55;;;;;;;40.35;19.09;100689.94;4765434;29;20050;-70
2023/09/29 06:30:35;;;;;;;17.05;8.05;;;;;;;41.03;18.29;100695.19;4793288;29;20383;-70
2023/09/29 06:33:01;;;;;;;14.13;7.75;;;;;;;41.34;18.18;100694.06;4789350;29;20057;-72
2023/09/29 06:35:27;;;;;;;17.83;8.07;;;;;;;42.03;17.38;100680.78;4792006;29;20119;-76
2023/09/29 06:37:53;;;;;;;17.92;8.20;;;;;;;42.60;16.79;100676.03;4799204;29;20137;-75
2023/09/29 06:40:23;;;;;;;;;;;;;;;43.33;16.27;100701.09;4801602;29;20432;-78
2023/09/29 06:42:49;;;;;;;13.63;8.50;;;;;;;43.66;16.11;100693.97;4799652;29;20408;-75
2023/09/29 06:45:15;;;;;;;16.10;8.05;;;;;;;44.19;15.63;100701.28;4816034;29;20858;-77
2023/09/29 06:47:41;;;;;;;16.30;7.97;;;;;;;44.15;15.32;100686.31;4786339;29;20086;-75
2023/09/29 06:50:10;;;;;;;13.80;7.82;;;;;;;44.58;14.93;100693.16;4798429;29;20049;-75
2023/09/29 06:52:38;;;;;;;19.20;8.30;;;;;;;44.91;14.75;100700.38;4800020;29;20581;-78
2023/09/29 06:55:04;;;;;;;18.98;8.88;;;;;;;44.92;14.67;100688.34;4797108;29;20042;-77
2023/09/29 06:57:31;;;;;;;22.67;8.77;;;;;;;45.26;14.39;100675.25;4797946;29;20050;-75
2023/09/29 06:59:57;;;;;;;15.93;7.80;;;;;;;45.29;14.26;100636.34;4796556;29;20039;-81
2023/09/29 07:02:23;;;;;;;17.38;8.30;;;;;;;45.86;13.84;100677.47;4801946;29;20057;-76
2023/09/29 07:04:49;;;;;;;18.83;8.27;;;;;;;45.75;13.70;100675.50;4796890;29;20096;-75
2023/09/29 07:07:16;;;;;;;20.25;8.20;;;;;;;45.65;13.93;100673.25;4798243;29;20062;-75
2023/09/29 07:09:42;;;;;;;13.75;7.70;;;;;;;46.30;13.55;100693.09;4796768;29;20062;-77
2023/09/29 07:12:08;;;;;;;14.57;7.70;;;;;;;46.43;12.95;100679.22;4792563;29;20062;-78
2023/09/29 07:14:34;;;;;;;16.35;7.20;;;;;;;46.17;13.23;100686.69;4796612;29;20059;-76
2023/09/29 07:17:00;;;;;;;17.10;7.28;;;;;;;46.15;12.81;100677.81;4799723;29;20050;-75
2023/09/29 07:19:27;;;;;;;10.52;7.20;;;;;;;46.29;12.96;100688.66;4782725;29;20349;-73
2023/09/29 07:21:52;;;;;;;12.98;6.88;;;;;;;46.62;12.75;100674.50;4779297;29;20051;-76
2023/09/29 07:24:21;;;;;;;16.77;7.03;;;;;;;47.08;12.75;100678.75;4783808;29;20441;-78
2023/09/29 07:26:47;;;;;;;11.00;7.10;;;;;;;46.31;12.76;100634.25;4799694;29;20648;-79
2023/09/29 07:29:13;;;;;;;12.82;7.10;;;;;;;46.47;12.68;100680.41;4799797;29;20134;-76
2023/09/29 07:31:46;;;;;;;14.20;7.30;;;;;;;46.59;12.54;100644.69;4812176;29;20088;-72
2023/09/29 07:34:15;;;;;;;11.25;7.13;;;;;;;46.88;13.04;100679.91;4783415;29;20043;-75
2023/09/29 07:36:45;;;;;;;10.63;6.87;;;;;;;47.28;12.75;100679.28;4780691;29;20083;-74
2023/09/29 07:39:15;;;;;;;13.25;7.03;;;;;;;47.79;12.07;100681.56;4760751;30;20051;-74
2023/09/29 07:41:41;;;;;;;10.15;6.43;;;;;;;48.28;12.40;100673.03;4772614;30;20051;-73
2023/09/29 07:44:08;;;;;;;13.88;6.55;;;;;;;48.85;11.55;100661.19;4774617;30;20039;-80
2023/09/29 07:46:35;;;;;;;13.93;6.70;;;;;;;49.20;11.52;100663.97;4777894;30;20696;-79
2023/09/29 07:49:02;;;;;;;10.43;6.38;;;;;;;48.89;11.44;100647.72;4790924;29;20043;-77
2023/09/29 07:51:29;;;;;;;16.10;6.03;;;;;;;48.94;11.51;100682.84;4774570;30;20055;-74
2023/09/29 07:53:59;;;;;;;12.85;6.13;;;;;;;48.90;11.62;100670.63;4741166;30;20074;-74
2023/09/29 07:56:25;;;;;;;13.45;6.85;;;;;;;48.91;11.34;100677.81;4762940;30;20054;-77
2023/09/29 07:58:52;;;;;;;15.50;7.00;;;;;;;49.11;11.18;100682.91;4768831;30;20138;-76
2023/09/29 08:01:18;;;;;;;14.90;6.53;;;;;;;49.03;11.33;100670.31;4772928;29;20047;-74
2023/09/29 08:03:44;;;;;;;15.10;6.32;;;;;;;49.15;11.54;100662.00;4786757;29;20393;-73
2023/09/29 08:06:10;;;;;;;11.82;5.93;;;;;;;49.34;11.02;100670.81;4760325;30;20065;-75
2023/09/29 08:08:37;;;;;;;13.85;6.88;;;;;;;48.75;11.62;100661.00;4774924;30;20046;-74
2023/09/29 08:11:03;;;;;;;14.77;5.97;;;;;;;48.83;11.61;100671.63;4776570;30;20055;-74
2023/09/29 08:13:29;;;;;;;14.60;6.43;;;;;;;49.32;11.59;100672.19;4747238;29;20100;-74
2023/09/29 08:15:55;;;;;;;12.80;6.47;;;;;;;49.53;11.24;100665.09;4757787;30;20059;-71
2023/09/29 08:18:22;;;;;;;14.95;6.30;;;;;;;49.62;11.00;100666.31;4761504;30;20043;-74
2023/09/29 08:20:53;;;;;;;15.43;6.70;;;;;;;48.46;11.52;100660.16;4777361;29;20047;-75
2023/09/29 08:23:30;;;;;;;19.83;7.03;;;;;;;48.45;11.64;100678.59;4775319;30;20054;-71
2023/09/29 08:25:57;;;;;;;12.93;6.70;;;;;;;48.43;11.88;100655.97;4778091;30;20065;-74
2023/09/29 08:28:23;;;;;;;10.45;6.15;;;;;;;48.29;11.90;100666.44;4774608;29;20039;-75
2023/09/29 08:30:48;;;;;;;10.48;6.38;;;;;;;47.94;12.08;100653.53;4777035;30;20040;-71
2023/09/29 08:33:15;;;;;;;16.55;6.90;;;;;;;48.16;11.84;100661.16;4771402;30;20051;-73
2023/09/29 08:35:43;;;;;;;13.25;6.25;;;;;;;48.22;12.13;100649.16;4783281;29;20063;-70
2023/09/29 08:38:09;;;;;;;9.48;6.18;;;;;;;48.13;11.98;100658.91;4789597;29;20055;-74
2023/09/29 08:40:41;;;;;;;10.00;5.60;;;;;;;48.07;12.03;100645.03;4806225;29;20055;-73
2023/09/29 08:43:13;;;;;;;13.05;6.28;;;;;;;47.94;11.70;100648.91;4780189;29;20047;-71
2023/09/29 08:45:45;;;;;;;9.93;6.03;;;;;;;48.21;11.83;100655.75;4775332;29;20417;-72
2023/09/29 08:48:12;;;;;;;13.25;6.30;;;;;;;48.16;12.09;100644.63;4790275;29;20165;-71
2023/09/29 08:50:41;;;;;;;11.05;6.28;;;;;;;48.22;11.91;100650.00;4804317;29;20086;-71
2023/09/29 08:53:10;;;;;;;8.48;5.72;;;;;;;48.48;11.59;100633.97;4804475;29;20044;-71
2023/09/29 08:55:37;;;;;;;12.77;6.22;;;;;;;47.95;12.48;100639.53;4792077;29;20051;-72
2023/09/29 08:58:04;;;;;;;14.18;6.32;;;;;;;47.84;12.36;100623.81;4790653;29;20139;-72
2023/09/29 09:00:31;;;;;;;10.32;6.40;;;;;;;48.19;12.09;100644.16;4793541;29;20043;-72
2023/09/29 09:03:00;;;;;;;12.57;6.22;;;;;;;48.12;12.05;100627.75;4782511;29;20066;-70
2023/09/29 09:05:26;;;;;;;;;;;;;;;48.07;12.27;100638.66;4793780;29;20039;-73
2023/09/29 09:07:54;;;;;;;9.65;6.20;;;;;;;48.07;12.35;100635.91;4795413;29;19932;-71
2023/09/29 09:10:33;;;;;;;15.02;6.97;;;;;;;47.53;12.00;100628.63;4791923;29;20050;-72
2023/09/29 09:13:02;;;;;;;17.90;7.53;;;;;;;46.97;12.55;100589.56;4796276;29;20344;-72
2023/09/29 09:15:28;;;;;;;18.77;7.13;;;;;;;46.96;12.66;100598.91;4809952;29;20058;-73
2023/09/29 09:17:56;;;;;;;17.02;7.15;;;;;;;47.05;12.66;100603.81;4781206;29;20300;-73
2023/09/29 09:20:23;;;;;;;14.70;7.65;;;;;;;47.21;12.63;100596.81;4794773;29;20047;-71
2023/09/29 09:22:58;;;;;;;17.27;7.85;;;;;;;47.35;12.25;100618.56;4796688;29;20113;-72
2023/09/29 09:25:35;;;;;;;10.90;6.50;;;;;;;46.73;12.40;100623.31;4781559;29;20035;-73
2023/09/29 09:28:03;;;;;;;18.88;7.18;;;;;;;46.01;12.72;100591.06;4787822;29;20050;-72
2023/09/29 09:30:35;;;;;;;13.02;6.82;;;;;;;46.15;13.20;100600.00;4766785;29;20047;-73
2023/09/29 09:33:03;;;;;;;15.80;7.20;;;;;;;46.01;13.01;100607.56;4769818;29;20084;-71
2023/09/29 09:35:30;;;;;;;11.10;6.50;;;;;;;45.61;13.48;100583.25;4799009;29;20435;-72
2023/09/29 09:37:57;;;;;;;9.52;6.22;;;;;;;46.40;13.28;100613.63;4788138;29;20148;-74
2023/09/29 09:40:34;;;;;;;13.02;6.43;;;;;;;45.92;13.16;100578.69;4800889;29;20057;-75
2023/09/29 09:43:05;;;;;;;12.50;6.43;;;;;;;45.13;13.73;100599.31;4796930;29;20063;-74
2023/09/29 09:45:39;;;;;;;12.40;6.03;;;;;;;44.74;13.71;100540.91;4798256;29;20086;-74
2023/09/29 09:48:14;;;;;;;10.55;5.78;;;;;;;44.95;13.88;100602.84;4801076;29;20085;-75
2023/09/29 09:50:49;;;;;;;12.05;5.97;;;;;;;44.76;13.81;100599.13;4799970;29;20108;-72
2023/09/29 09:53:18;;;;;;;10.18;5.25;;;;;;;44.09;14.29;100571.00;4815677;29;20082;-72
2023/09/29 09:55:52;;;;;;;12.10;6.10;;;;;;;43.54;14.19;100581.47;4799099;29;20075;-75
2023/09/29 09:58:22;;;;;;;11.52;5.60;;;;;;;42.88;14.86;100559.34;4802311;29;20074;-72
2023/09/29 10:00:58;;;;;;;10.02;5.53;;;;;;;42.63;15.34;100581.78;4801691;29;20042;-73
2023/09/29 10:03:26;;;;;;;17.02;6.20;;;;;;;41.27;15.90;100569.50;4786368;29;20687;-72
2023/09/29 10:05:56;;;;;;;12.55;5.40;;;;;;;39.51;16.98;100544.78;4786405;29;20043;-70
2023/09/29 10:08:29;;;;;;;9.63;5.68;;;;;;;38.46;18.02;100578.88;4800609;29;20072;-72
2023/09/29 10:11:15;;;;;;;10.77;5.13;;;;;;;37.11;19.63;100583.88;4786508;29;20044;-72
2023/09/29 10:13:48;;;;;;;11.65;4.85;;;;;;;36.06;20.15;100568.00;4798765;29;20054;-71
2023/09/29 10:16:24;;;;;;;8.05;4.93;;;;;;;35.08;21.09;100586.88;4798905;29;20127;-71
2023/09/29 10:19:00;;;;;;;8.32;5.18;;;;;;;34.19;21.76;100570.34;4801591;29;20058;-75
2023/09/29 10:21:33;;;;;;;9.15;4.80;;;;;;;33.35;22.73;100518.88;4813910;29;20050;-75
2023/09/29 10:24:05;;;;;;;8.85;5.18;;;;;;;33.26;23.32;100584.44;4813972;29;20046;-71
2023/09/29 10:26:46;;;;;;;10.50;5.13;;;;;;;32.65;23.94;100570.19;4795589;29;20107;-69
2023/09/29 10:29:34;;;;;;;10.77;5.30;;;;;;;31.34;24.54;100477.59;4781841;29;20039;-71
2023/09/29 10:32:14;;;;;;;15.80;5.13;;;;;;;31.53;25.42;100563.75;4799728;29;20115;-70
2023/09/29 10:34:42;;;;;;;10.60;5.30;;;;;;;31.00;25.60;100543.09;4793460;29;20073;-72
2023/09/29 10:37:11;;;;;;;11.93;5.50;;;;;;;30.87;26.04;100582.72;4785828;29;20047;-70
2023/09/29 10:39:39;;;;;;;12.38;5.40;;;;;;;30.22;26.63;100535.09;4799943;29;20511;-72
2023/09/29 10:42:38;;;;;;;8.75;5.43;;;;;;;30.10;27.43;100573.66;4805709;29;20052;-74
2023/09/29 10:45:06;;;;;;;15.10;5.40;;;;;;;29.86;27.51;100577.25;4805026;29;20050;-77
2023/09/29 10:47:38;;;;;;;9.70;5.18;;;;;;;29.26;28.11;100540.66;4803256;29;20051;-76
2023/09/29 10:50:13;;;;;;;13.32;5.40;;;;;;;28.75;28.54;100480.22;4820193;29;20047;-82
2023/09/29 10:52:40;;;;;;;9.77;5.57;;;;;;;29.17;28.69;100565.47;4806559;29;20046;-80
2023/09/29 10:55:28;;;;;;;11.18;4.85;;;;;;;28.89;28.80;100569.34;4806042;29;21138;-76
2023/09/29 10:58:04;;;;;;;12.75;5.05;;;;;;;28.22;29.41;100521.47;4804302;29;20058;-78
2023/09/29 11:00:30;;;;;;;6.53;5.22;;;;;;;28.21;29.72;100561.72;4790502;29;20540;-76
2023/09/29 11:02:56;;;;;;;13.52;5.30;;;;;;;27.98;30.22;100550.81;4800460;29;20042;-75
2023/09/29 11:05:23;;;;;;;8.55;4.70;;;;;;;27.90;30.17;100566.50;4796897;29;20065;-77
2023/09/29 11:07:52;;;;;;;9.35;4.85;;;;;;;27.40;30.18;100505.75;4783062;29;20053;-76
2023/09/29 11:10:20;;;;;;;8.00;4.65;;;;;;;27.33;30.69;100525.84;4800688;29;20137;-80
2023/09/29 11:12:48;;;;;;;8.45;4.97;;;;;;;27.35;30.51;100543.47;4785063;29;20415;-76
2023/09/29 11:18:36;;;;;;;9.45;4.68;;;;;;;26.50;31.16;100468.13;4788055;29;20066;-76
2023/09/29 11:21:11;;;;;;;10.30;4.70;;;;;;;26.59;31.67;100503.06;4776959;29;20141;-76
2023/09/29 11:23:49;;;;;;;8.30;4.30;;;;;;;26.81;31.89;100546.22;4796276;29;20085;-75
2023/09/29 11:26:27;;;;;;;9.55;4.90;;;;;;;26.71;31.94;100546.75;4763987;29;20108;-77
2023/09/29 11:28:59;;;;;;;11.15;4.72;;;;;;;26.53;32.30;100551.47;4796783;29;20047;-74